Time;durP1;ratioP1;P1;durP2;ratioP2;P2;SDS_P1;SDS_P2;PMS_P1;PMS_P2;Temp;Humidity;BMP_temperature;BMP_pressure;BME280_temperature;BME280_humidity;BME280_pressure;Samples;Min_cycle;Max_cycle;Signal;HPM_P1;HPM_P2
2022/07/08 00:08:06;;;;;;;1.30;0.40;;;12.30;99.90;;;;;;20977812;28;20045;-54
2022/07/08 00:18:08;;;;;;;1.08;0.60;;;12.10;99.90;;;;;;20977933;28;20036;-53
2022/07/08 00:28:10;;;;;;;1.90;0.50;;;12.20;99.90;;;;;;20976917;28;20037;-53
2022/07/08 00:38:13;;;;;;;1.10;0.63;;;12.20;99.90;;;;;;20975932;28;20098;-47
2022/07/08 00:48:15;;;;;;;0.77;0.40;;;12.00;99.90;;;;;;20975251;28;20037;-47
2022/07/08 00:58:19;;;;;;;1.05;0.40;;;12.00;99.90;;;;;;20975624;28;20028;-54
2022/07/08 01:08:22;;;;;;;0.30;0.30;;;12.20;99.90;;;;;;20973648;28;20044;-46
2022/07/08 01:18:29;;;;;;;0.47;0.30;;;12.40;99.90;;;;;;20972712;28;20481;-50
2022/07/08 01:28:31;;;;;;;0.60;0.30;;;12.70;99.90;;;;;;20972738;28;20043;-53
2022/07/08 01:38:34;;;;;;;0.82;0.40;;;12.70;99.60;;;;;;20971346;28;20510;-54
2022/07/08 01:48:37;;;;;;;0.43;0.40;;;12.50;99.30;;;;;;20970363;28;20052;-54
2022/07/08 01:58:40;;;;;;;0.70;0.40;;;12.60;99.60;;;;;;20969240;28;20439;-46
2022/07/08 02:08:42;;;;;;;0.43;0.30;;;12.50;99.30;;;;;;20985321;28;20561;-55
2022/07/08 02:18:45;;;;;;;1.23;0.40;;;12.50;99.10;;;;;;20968596;28;20069;-53
2022/07/08 02:28:47;;;;;;;0.57;0.47;;;12.30;99.60;;;;;;20984017;28;20037;-52
2022/07/08 02:38:49;;;;;;;1.80;0.40;;;12.20;99.60;;;;;;20967349;28;20040;-51
2022/07/08 02:48:51;;;;;;;0.52;0.47;;;12.10;99.70;;;;;;20967316;28;20534;-52
2022/07/08 02:58:55;;;;;;;0.57;0.30;;;11.70;99.90;;;;;;20966551;28;20370;-53
2022/07/08 03:08:57;;;;;;;0.77;0.43;;;11.50;99.90;;;;;;20966349;28;20049;-53
2022/07/08 03:18:59;;;;;;;0.50;0.35;;;11.20;99.90;;;;;;20966241;28;20102;-54
2022/07/08 03:29:01;;;;;;;0.30;0.20;;;11.10;99.90;;;;;;20949179;28;20102;-54
2022/07/08 03:39:04;;;;;;;0.38;0.20;;;10.90;99.90;;;;;;20968822;28;20169;-52
2022/07/08 03:49:07;;;;;;;0.30;0.20;;;11.00;99.90;;;;;;20980066;28;20040;-52
2022/07/08 03:59:10;;;;;;;0.20;0.10;;;11.50;99.60;;;;;;20979774;28;20040;-52
2022/07/08 04:09:13;;;;;;;0.52;0.20;;;11.40;99.50;;;;;;20978498;28;20109;-52
2022/07/08 04:19:15;;;;;;;0.57;0.20;;;11.60;98.80;;;;;;20978007;28;20067;-54
2022/07/08 04:29:17;;;;;;;1.00;0.20;;;11.50;99.50;;;;;;20976910;28;20040;-54
2022/07/08 04:39:19;;;;;;;0.22;0.20;;;12.00;98.40;;;;;;20976657;28;20033;-55
2022/07/08 04:49:23;;;;;;;0.95;0.20;;;12.30;98.50;;;;;;20974980;28;20029;-50
2022/07/08 04:59:26;;;;;;;0.40;0.10;;;12.20;99.10;;;;;;20974850;28;20098;-51
2022/07/08 05:09:28;;;;;;;0.10;0.10;;;12.00;99.10;;;;;;20973686;28;20048;-52
2022/07/08 05:19:30;;;;;;;0.30;0.10;;;12.10;98.40;;;;;;20972908;28;20032;-56
2022/07/08 05:29:33;;;;;;;0.30;0.10;;;12.60;97.30;;;;;;20972088;28;20032;-56
2022/07/08 05:39:35;;;;;;;0.38;0.20;;;12.90;96.60;;;;;;20971286;28;20033;-55
2022/07/08 05:49:38;;;;;;;0.32;0.20;;;13.20;96.50;;;;;;20970410;28;20481;-56
2022/07/08 05:59:44;;;;;;;0.20;0.10;;;13.20;95.60;;;;;;20969039;28;20036;-55
2022/07/08 06:09:47;;;;;;;0.88;0.15;;;13.70;93.90;;;;;;20968687;28;20048;-57
2022/07/08 06:19:49;;;;;;;0.10;0.10;;;14.50;92.20;;;;;;20985062;28;20033;-56
2022/07/08 06:29:52;;;;;;;0.40;0.20;;;18.30;84.50;;;;;;20968119;28;20094;-54
2022/07/08 06:39:54;;;;;;;0.17;0.10;;;21.10;75.30;;;;;;20968105;28;20474;-56
2022/07/08 06:49:56;;;;;;;0.93;0.25;;;22.20;72.40;;;;;;20967328;28;20036;-56
2022/07/08 07:00:01;;;;;;;0.50;0.20;;;22.60;69.40;;;;;;20966608;28;20082;-56
2022/07/08 07:10:03;;;;;;;0.10;0.10;;;21.80;68.70;;;;;;20965990;28;20048;-56
2022/07/08 07:20:07;;;;;;;0.20;0.20;;;21.80;67.40;;;;;;20981382;28;20401;-56
2022/07/08 07:30:10;;;;;;;0.10;0.10;;;21.80;68.00;;;;;;20981527;28;20062;-56
2022/07/08 07:40:12;;;;;;;0.38;0.20;;;21.70;66.90;;;;;;20981891;28;20599;-53
2022/07/08 07:50:14;;;;;;;0.57;0.20;;;21.20;68.30;;;;;;20979836;28;20037;-56
2022/07/08 08:00:18;;;;;;;0.20;0.17;;;21.00;67.80;;;;;;20978901;28;20032;-57
2022/07/08 08:10:20;;;;;;;0.65;0.20;;;20.50;67.80;;;;;;20977705;28;20550;-57
2022/07/08 08:20:25;;;;;;;0.75;0.47;;;20.70;68.80;;;;;;20977803;28;20052;-54
2022/07/08 08:30:27;;;;;;;0.52;0.20;;;21.10;66.90;;;;;;20976168;28;20028;-58
2022/07/08 08:40:31;;;;;;;0.47;0.20;;;20.50;70.90;;;;;;20976336;28;20078;-57
2022/07/08 08:50:54;;;;;;;0.28;0.17;;;21.30;67.90;;;;;;20975725;28;20463;-58
2022/07/08 09:00:57;;;;;;;0.20;0.10;;;20.60;68.00;;;;;;20974669;28;20082;-57
2022/07/08 09:11:00;;;;;;;0.10;0.10;;;20.50;71.20;;;;;;20973637;28;20044;-58
2022/07/08 09:21:03;;;;;;;0.98;0.30;;;21.10;72.50;;;;;;20972815;28;20091;-58
2022/07/08 09:31:07;;;;;;;1.25;0.25;;;22.10;71.70;;;;;;20972314;28;20485;-58
2022/07/08 09:41:16;;;;;;;0.20;0.20;;;23.40;70.20;;;;;;20972559;28;20389;-58
2022/07/08 09:51:22;;;;;;;0.73;0.30;;;24.10;68.50;;;;;;20970469;28;20094;-59
2022/07/08 10:01:25;;;;;;;0.10;0.10;;;24.60;64.30;;;;;;20969576;28;20040;-58
2022/07/08 10:11:28;;;;;;;0.10;0.10;;;25.20;65.40;;;;;;20985431;28;20056;-58
2022/07/08 10:21:34;;;;;;;0.20;0.15;;;24.00;68.10;;;;;;20985222;28;20473;-58
2022/07/08 10:31:51;;;;;;;0.25;0.10;;;25.00;65.10;;;;;;20968196;28;20040;-59
2022/07/08 10:42:01;;;;;;;0.45;0.20;;;24.60;66.90;;;;;;20968060;28;20067;-59
2022/07/08 10:52:04;;;;;;;0.68;0.20;;;25.40;64.50;;;;;;20966773;28;20070;-59
2022/07/08 11:02:16;;;;;;;0.40;0.40;;;24.50;62.40;;;;;;20966649;28;20029;-55
2022/07/08 11:12:21;;;;;;;0.10;0.10;;;24.20;60.20;;;;;;20900031;28;20502;-58
2022/07/08 11:22:24;;;;;;;0.20;0.20;;;25.10;62.50;;;;;;20899904;28;20029;-59
2022/07/08 11:32:27;;;;;;;0.90;0.20;;;25.60;62.60;;;;;;20899922;28;20436;-59
2022/07/08 11:42:30;;;;;;;0.65;0.20;;;25.60;61.30;;;;;;20898872;28;20037;-59
2022/07/08 11:52:32;;;;;;;0.20;0.20;;;25.80;63.50;;;;;;20898638;28;20099;-58
2022/07/08 12:02:36;;;;;;;0.20;0.20;;;25.90;58.00;;;;;;20905760;28;20041;-59
2022/07/08 12:12:39;;;;;;;0.15;0.10;;;26.20;58.70;;;;;;20912387;28;20124;-59
2022/07/08 12:22:46;;;;;;;0.20;0.20;;;26.70;57.90;;;;;;20911782;28;20037;-59
2022/07/08 12:32:49;;;;;;;0.45;0.25;;;26.70;58.80;;;;;;20910901;28;20040;-59
2022/07/08 12:43:02;;;;;;;0.60;0.40;;;26.80;65.60;;;;;;20909930;28;20041;-59
2022/07/08 12:53:04;;;;;;;0.50;0.50;;;27.70;66.50;;;;;;20909303;28;20033;-60
2022/07/08 13:03:08;;;;;;;1.63;0.30;;;27.70;65.60;;;;;;20909612;28;20033;-59
2022/07/08 13:13:10;;;;;;;1.08;0.50;;;27.30;61.50;;;;;;20973300;28;20041;-59
2022/07/08 13:23:14;;;;;;;0.22;0.22;;;26.80;59.50;;;;;;20973762;28;20044;-60
2022/07/08 13:33:16;;;;;;;0.45;0.35;;;26.90;62.70;;;;;;20971627;28;20029;-59
2022/07/08 13:43:19;;;;;;;1.35;0.40;;;27.80;67.10;;;;;;20972085;28;20535;-60
2022/07/08 13:53:21;;;;;;;0.70;0.47;;;28.20;66.60;;;;;;20970592;28;20436;-60
2022/07/08 14:03:24;;;;;;;0.73;0.40;;;28.60;65.90;;;;;;20969631;28;20130;-58
2022/07/08 14:13:27;;;;;;;1.58;0.60;;;28.50;62.10;;;;;;20968927;28;20029;-57
2022/07/08 14:23:30;;;;;;;0.40;0.40;;;28.90;62.80;;;;;;20985051;28;20085;-60
2022/07/08 14:33:32;;;;;;;0.50;0.40;;;28.90;62.90;;;;;;20968385;28;20067;-60
2022/07/08 14:43:35;;;;;;;0.75;0.70;;;29.60;66.20;;;;;;20968055;28;20032;-60
2022/07/08 14:53:39;;;;;;;0.90;0.70;;;29.80;59.50;;;;;;20950432;28;20028;-60
2022/07/08 15:03:42;;;;;;;0.73;0.60;;;30.10;62.20;;;;;;20966312;28;20502;-61
2022/07/08 15:13:45;;;;;;;0.60;0.60;;;31.00;62.70;;;;;;20966721;28;20028;-61
2022/07/08 15:23:50;;;;;;;1.35;0.80;;;30.70;62.20;;;;;;20965988;28;20078;-61
2022/07/08 15:33:53;;;;;;;0.73;0.73;;;31.30;61.40;;;;;;20953952;28;20041;-60
2022/07/08 15:43:58;;;;;;;1.27;0.50;;;31.10;60.20;;;;;;20980596;28;20393;-60
2022/07/08 15:54:00;;;;;;;2.05;1.08;;;30.90;58.60;;;;;;20979854;28;20048;-60
2022/07/08 16:04:02;;;;;;;0.88;0.65;;;30.40;57.70;;;;;;20979195;28;20106;-60
2022/07/08 16:14:06;;;;;;;0.82;0.55;;;26.30;61.90;;;;;;20978381;28;20044;-58
2022/07/08 16:24:09;;;;;;;1.10;0.40;;;25.90;62.50;;;;;;20976975;28;20367;-49
2022/07/08 16:34:12;;;;;;;1.17;0.88;;;24.10;67.60;;;;;;20993054;28;20070;-58
2022/07/08 16:44:15;;;;;;;0.93;0.77;;;23.00;71.50;;;;;;20975233;28;20440;-58
2022/07/08 16:54:17;;;;;;;2.15;0.65;;;22.30;74.10;;;;;;20974871;28;20097;-49
2022/07/08 17:04:20;;;;;;;2.58;1.00;;;21.00;75.50;;;;;;20973882;28;20397;-57
2022/07/08 17:14:23;;;;;;;0.75;0.60;;;19.60;80.50;;;;;;20972777;28;20029;-56
2022/07/08 17:24:26;;;;;;;1.25;0.68;;;18.60;85.40;;;;;;20971606;28;20040;-56
2022/07/08 17:34:29;;;;;;;0.60;0.55;;;17.90;89.60;;;;;;20970905;28;20721;-56
2022/07/08 17:44:31;;;;;;;2.28;1.60;;;17.30;90.80;;;;;;20969707;28;20090;-57
2022/07/08 17:54:33;;;;;;;2.35;1.70;;;16.80;92.00;;;;;;20970168;28;20488;-51
2022/07/08 18:04:37;;;;;;;2.13;1.60;;;16.20;93.50;;;;;;20967920;28;20049;-55
2022/07/08 18:14:41;;;;;;;2.78;1.70;;;15.90;94.50;;;;;;20984142;28;20036;-54
2022/07/08 18:24:43;;;;;;;3.58;1.85;;;15.60;95.00;;;;;;20984459;28;20028;-55
2022/07/08 18:34:45;;;;;;;5.88;2.30;;;15.50;96.00;;;;;;20966859;28;20040;-55
2022/07/08 18:44:50;;;;;;;2.47;1.90;;;14.90;97.20;;;;;;20966334;28;20106;-56
2022/07/08 18:54:53;;;;;;;5.57;2.70;;;14.80;97.40;;;;;;20967231;28;20074;-51
2022/07/08 19:04:56;;;;;;;4.00;2.47;;;14.60;98.30;;;;;;20965479;28;20044;-54
2022/07/08 19:14:59;;;;;;;3.40;2.28;;;14.20;99.90;;;;;;20979911;28;20028;-52
2022/07/08 19:25:02;;;;;;;5.20;3.13;;;14.00;99.90;;;;;;20981900;28;20032;-54
2022/07/08 19:35:05;;;;;;;5.40;3.72;;;14.20;99.90;;;;;;20980837;28;20110;-55
2022/07/08 19:45:08;;;;;;;4.50;2.97;;;14.20;99.90;;;;;;20980029;28;20083;-51
2022/07/08 19:55:11;;;;;;;5.47;3.08;;;13.80;99.90;;;;;;20979362;28;20436;-51
2022/07/08 20:05:13;;;;;;;5.32;3.80;;;13.60;99.90;;;;;;20977729;28;20110;-52
2022/07/08 20:15:16;;;;;;;4.95;3.00;;;13.50;99.90;;;;;;20977448;28;20451;-51
2022/07/08 20:25:19;;;;;;;4.25;3.13;;;13.40;99.90;;;;;;20975605;28;20032;-53
2022/07/08 20:35:22;;;;;;;5.28;2.00;;;13.30;99.90;;;;;;20977352;28;20550;-52
2022/07/08 20:45:24;;;;;;;4.55;2.78;;;13.20;99.90;;;;;;20974717;28;20110;-50
2022/07/08 20:55:27;;;;;;;4.75;2.40;;;13.10;99.90;;;;;;20974394;28;20037;-54
2022/07/08 21:05:29;;;;;;;3.92;2.47;;;13.00;99.90;;;;;;20973772;28;20044;-50
2022/07/08 21:15:33;;;;;;;2.83;1.83;;;13.00;99.90;;;;;;20973129;28;20499;-46
2022/07/08 21:25:35;;;;;;;1.20;1.08;;;13.00;99.90;;;;;;20972100;28;20093;-48
2022/07/08 21:35:37;;;;;;;2.50;1.20;;;12.60;99.90;;;;;;20971391;28;20446;-54
2022/07/08 21:45:40;;;;;;;1.70;1.40;;;12.50;99.90;;;;;;20970928;28;20054;-54
2022/07/08 21:55:42;;;;;;;3.55;1.70;;;12.30;99.90;;;;;;20969432;28;20094;-50
2022/07/08 22:05:45;;;;;;;1.10;0.80;;;12.30;99.90;;;;;;20985488;28;20531;-51
2022/07/08 22:15:50;;;;;;;4.50;0.95;;;12.10;99.90;;;;;;20969278;28;20048;-55
2022/07/08 22:25:52;;;;;;;3.13;1.45;;;12.30;99.90;;;;;;20968111;28;20389;-53
2022/07/08 22:35:54;;;;;;;2.83;1.45;;;12.40;99.90;;;;;;20967793;28;20078;-55
2022/07/08 22:45:57;;;;;;;1.23;0.93;;;12.40;99.90;;;;;;20966724;28;20044;-52
2022/07/08 22:55:59;;;;;;;1.13;0.93;;;12.30;99.90;;;;;;20967006;28;20025;-53
2022/07/08 23:06:02;;;;;;;1.30;0.85;;;12.30;99.90;;;;;;20967054;28;20040;-53
2022/07/08 23:16:08;;;;;;;2.88;1.38;;;12.20;99.90;;;;;;20966734;28;20040;-51
2022/07/08 23:26:10;;;;;;;2.83;1.75;;;12.00;99.90;;;;;;20967236;28;20036;-51
2022/07/08 23:36:12;;;;;;;2.30;1.40;;;11.90;99.90;;;;;;20965766;28;20059;-54
2022/07/08 23:46:15;;;;;;;1.88;1.52;;;12.20;99.90;;;;;;20965409;28;20481;-54
2022/07/08 23:56:17;;;;;;;3.15;1.60;;;12.10;99.90;;;;;;20972610;28;20070;-51
